createdAt,value
2017-02-13T00:00:20.247Z,0
2017-02-13T00:01:33.995Z,0
2017-02-13T00:02:48.060Z,0
2017-02-13T00:04:02.368Z,0
2017-02-13T00:05:15.985Z,0
2017-02-13T00:06:29.893Z,0
2017-02-13T00:07:43.782Z,0
2017-02-13T00:08:58.362Z,0
2017-02-13T00:10:12.396Z,0
2017-02-13T00:11:28.739Z,0
2017-02-13T00:12:42.700Z,0
2017-02-13T00:13:56.757Z,0
2017-02-13T00:15:10.672Z,0
2017-02-13T00:16:24.708Z,0
2017-02-13T00:17:38.568Z,0
2017-02-13T00:18:52.583Z,0
2017-02-13T00:20:06.385Z,0
2017-02-13T00:21:21.084Z,0
2017-02-13T00:22:35.355Z,0
2017-02-13T00:23:49.854Z,0
2017-02-13T00:25:03.516Z,0
2017-02-13T00:26:17.296Z,0
2017-02-13T00:27:31.429Z,0
2017-02-13T00:28:45.202Z,0
2017-02-13T00:29:59.298Z,0
2017-02-13T00:31:13.439Z,0
2017-02-13T00:32:27.425Z,0
2017-02-13T00:33:41.681Z,0
2017-02-13T00:34:55.295Z,0
2017-02-13T00:36:09.142Z,0
2017-02-13T00:37:27.148Z,0
2017-02-13T00:38:43.439Z,0
2017-02-13T00:40:01.469Z,0
2017-02-13T00:41:18.162Z,0
2017-02-13T00:42:35.002Z,0
2017-02-13T00:43:49.517Z,0
2017-02-13T00:45:03.159Z,0
2017-02-13T00:46:17.486Z,0
2017-02-13T00:47:31.478Z,0
2017-02-13T00:48:45.680Z,0
2017-02-13T00:49:59.603Z,0
2017-02-13T00:51:13.877Z,0
2017-02-13T00:52:27.739Z,0
2017-02-13T00:53:41.496Z,0
2017-02-13T00:54:55.628Z,0
2017-02-13T00:56:09.375Z,0
2017-02-13T00:57:23.298Z,0
2017-02-13T00:58:37.536Z,0
2017-02-13T01:02:48.535Z,0
2017-02-13T01:04:03.850Z,0
2017-02-13T01:05:17.945Z,0
2017-02-13T01:06:31.505Z,0
2017-02-13T01:07:45.423Z,0
2017-02-13T01:08:59.224Z,0
2017-02-13T01:10:13.108Z,0
2017-02-13T01:11:27.189Z,0
2017-02-13T01:12:40.963Z,0
2017-02-13T01:13:54.535Z,0
2017-02-13T01:15:08.679Z,0
2017-02-13T01:16:22.741Z,0
2017-02-13T01:17:36.768Z,0
2017-02-13T01:18:50.242Z,0
2017-02-13T01:20:04.053Z,0
2017-02-13T01:21:18.076Z,0
2017-02-13T01:22:32.469Z,0
2017-02-13T01:23:46.226Z,0
2017-02-13T01:25:00.423Z,0
2017-02-13T01:26:14.020Z,0
2017-02-13T01:27:28.073Z,0
2017-02-13T01:28:41.819Z,0
2017-02-13T01:29:58.116Z,0
2017-02-13T01:31:11.686Z,0
2017-02-13T01:32:25.596Z,0
2017-02-13T01:33:39.434Z,0
2017-02-13T01:34:53.346Z,0
2017-02-13T01:36:06.878Z,0
2017-02-13T01:37:21.085Z,0
2017-02-13T01:38:37.261Z,0
2017-02-13T01:39:51.127Z,0
2017-02-13T01:41:05.030Z,0
2017-02-13T01:42:18.560Z,0
2017-02-13T01:43:32.469Z,0
2017-02-13T01:44:46.361Z,0
2017-02-13T01:46:00.381Z,0
2017-02-13T01:47:14.857Z,0
2017-02-13T01:48:28.551Z,0
2017-02-13T01:49:42.194Z,0
2017-02-13T01:50:55.991Z,0
2017-02-13T01:52:09.847Z,0
2017-02-13T01:53:24.713Z,0
2017-02-13T01:54:38.279Z,0
2017-02-13T01:55:52.020Z,0
2017-02-13T01:57:05.982Z,0
2017-02-13T01:58:20.310Z,0
2017-02-13T01:59:34.191Z,0
2017-02-13T02:00:48.034Z,0
2017-02-13T02:02:01.526Z,0
2017-02-13T02:03:16.002Z,0
2017-02-13T02:04:29.862Z,0
2017-02-13T02:05:44.026Z,0
2017-02-13T02:06:57.513Z,0
2017-02-13T02:08:11.315Z,0
2017-02-13T02:09:24.773Z,0
2017-02-13T02:10:39.030Z,0
2017-02-13T02:11:52.856Z,0
2017-02-13T02:13:06.955Z,0
2017-02-13T02:14:20.520Z,0
2017-02-13T02:15:34.226Z,0
2017-02-13T02:16:47.981Z,0
2017-02-13T02:18:17.094Z,0
2017-02-13T02:19:30.620Z,0
2017-02-13T02:20:44.436Z,0
2017-02-13T02:21:58.608Z,0
2017-02-13T02:23:21.033Z,0
2017-02-13T02:24:44.650Z,0
2017-02-13T02:26:06.839Z,0
2017-02-13T02:27:29.055Z,0
2017-02-13T02:28:50.568Z,0
2017-02-13T02:30:12.786Z,0
2017-02-13T02:31:35.655Z,0
2017-02-13T02:32:57.484Z,0
2017-02-13T02:34:19.647Z,0
2017-02-13T02:35:39.931Z,0
2017-02-13T02:37:06.445Z,0
2017-02-13T02:38:25.923Z,0
2017-02-13T02:39:40.675Z,0
2017-02-13T02:40:54.320Z,0
2017-02-13T02:42:08.795Z,0
2017-02-13T02:43:22.437Z,0
2017-02-13T02:44:36.608Z,0
2017-02-13T02:45:50.706Z,0
2017-02-13T02:47:04.377Z,0
2017-02-13T02:48:20.587Z,0
2017-02-13T02:49:34.237Z,0
2017-02-13T02:50:48.309Z,0
2017-02-13T02:52:02.167Z,0
2017-02-13T02:53:16.303Z,0
2017-02-13T02:54:30.250Z,0
2017-02-13T02:55:44.111Z,0
2017-02-13T02:56:58.425Z,0
2017-02-13T02:58:27.313Z,0
2017-02-13T02:59:41.899Z,0
2017-02-13T03:00:55.444Z,0
2017-02-13T03:02:09.391Z,0
2017-02-13T03:03:22.971Z,0
2017-02-13T03:04:51.561Z,0
2017-02-13T03:06:06.081Z,0
2017-02-13T03:07:19.845Z,0
2017-02-13T03:08:33.663Z,0
2017-02-13T03:09:47.491Z,0
2017-02-13T03:11:01.545Z,0
2017-02-13T03:12:15.857Z,0
2017-02-13T03:13:29.944Z,0
2017-02-13T03:14:43.666Z,0
2017-02-13T03:15:57.411Z,0
2017-02-13T03:17:11.512Z,0
2017-02-13T03:18:25.456Z,0
2017-02-13T03:19:39.009Z,0
2017-02-13T03:20:52.759Z,0
2017-02-13T03:22:06.194Z,0
2017-02-13T03:23:20.800Z,0
2017-02-13T03:24:34.266Z,0
2017-02-13T03:25:48.121Z,0
2017-02-13T03:27:02.001Z,0
2017-02-13T03:28:15.781Z,0
2017-02-13T03:29:29.818Z,0
2017-02-13T03:30:43.509Z,0
2017-02-13T03:31:57.152Z,0
2017-02-13T03:33:10.869Z,0
2017-02-13T03:34:24.633Z,0
2017-02-13T03:35:38.981Z,0
2017-02-13T03:36:52.724Z,0
2017-02-13T03:38:06.357Z,0
2017-02-13T03:39:19.883Z,0
2017-02-13T03:40:33.980Z,0
2017-02-13T03:41:48.010Z,0
2017-02-13T03:43:02.018Z,0
2017-02-13T03:44:15.677Z,0
2017-02-13T03:45:30.086Z,0
2017-02-13T03:46:43.916Z,0
2017-02-13T03:47:58.106Z,0
2017-02-13T03:49:11.872Z,0
2017-02-13T03:50:25.810Z,0
2017-02-13T03:51:39.472Z,0
2017-02-13T03:52:53.389Z,0
2017-02-13T03:54:07.218Z,0
2017-02-13T03:55:20.864Z,0
2017-02-13T03:56:34.613Z,0
2017-02-13T03:57:48.407Z,0
2017-02-13T03:59:01.966Z,0
2017-02-13T04:00:16.141Z,0
2017-02-13T04:01:29.671Z,0
2017-02-13T04:02:43.736Z,0
2017-02-13T04:03:57.557Z,0
2017-02-13T04:05:28.623Z,0
2017-02-13T04:06:42.591Z,0
2017-02-13T04:07:56.169Z,0
2017-02-13T04:09:10.396Z,0
2017-02-13T04:10:23.901Z,0
2017-02-13T04:11:37.781Z,0
2017-02-13T04:12:51.534Z,0
2017-02-13T04:14:05.317Z,0
2017-02-13T04:15:19.036Z,0
2017-02-13T04:16:32.743Z,0
2017-02-13T04:17:46.269Z,0
2017-02-13T04:19:00.298Z,0
2017-02-13T04:20:13.933Z,0
2017-02-13T04:21:27.939Z,0
2017-02-13T04:22:41.400Z,0
2017-02-13T04:23:55.100Z,0
2017-02-13T04:25:09.714Z,0
2017-02-13T04:26:23.435Z,0
2017-02-13T04:27:37.293Z,0
2017-02-13T04:28:50.916Z,0
2017-02-13T04:30:04.991Z,0
2017-02-13T04:31:19.320Z,0
2017-02-13T04:32:32.911Z,0
2017-02-13T04:33:46.664Z,0
2017-02-13T04:35:00.561Z,0
2017-02-13T04:36:14.434Z,0
2017-02-13T04:37:28.725Z,0
2017-02-13T04:38:42.497Z,0
2017-02-13T04:39:56.828Z,0
2017-02-13T04:41:11.928Z,0
2017-02-13T04:42:25.585Z,0
2017-02-13T04:43:39.892Z,0
2017-02-13T04:44:53.604Z,0
2017-02-13T04:46:07.362Z,0
2017-02-13T04:47:21.117Z,0
2017-02-13T04:48:35.280Z,0
2017-02-13T04:49:49.293Z,0
2017-02-13T04:51:03.080Z,0
2017-02-13T04:52:16.836Z,0
2017-02-13T04:53:30.951Z,0
2017-02-13T04:54:44.645Z,0
2017-02-13T04:55:58.807Z,0
2017-02-13T04:57:12.266Z,0
2017-02-13T04:58:26.520Z,0
2017-02-13T04:59:40.616Z,0
2017-02-13T05:00:54.663Z,0
2017-02-13T05:02:09.176Z,0
2017-02-13T05:03:23.292Z,0
2017-02-13T05:04:37.403Z,0
2017-02-13T05:05:51.360Z,0
2017-02-13T05:07:04.944Z,0
2017-02-13T05:08:18.924Z,0
2017-02-13T05:09:32.639Z,0
2017-02-13T05:10:46.555Z,0
2017-02-13T05:12:00.585Z,0
2017-02-13T05:13:14.740Z,0
2017-02-13T05:14:28.775Z,0
2017-02-13T05:15:42.591Z,0
2017-02-13T05:16:56.118Z,0
2017-02-13T05:18:09.833Z,0
2017-02-13T05:19:23.609Z,0
2017-02-13T05:20:38.013Z,0
2017-02-13T05:21:53.930Z,0
2017-02-13T05:23:07.701Z,0
2017-02-13T05:24:21.830Z,0
2017-02-13T05:25:35.906Z,0
2017-02-13T05:26:49.837Z,0
2017-02-13T05:28:03.411Z,0
2017-02-13T05:29:17.106Z,0
2017-02-13T05:30:30.614Z,0
2017-02-13T05:31:44.914Z,0
2017-02-13T05:32:58.798Z,0
2017-02-13T05:34:12.722Z,0
2017-02-13T05:35:26.228Z,0
2017-02-13T05:36:39.908Z,0
2017-02-13T05:37:54.118Z,0
2017-02-13T05:39:08.122Z,0
2017-02-13T05:40:21.698Z,0
2017-02-13T05:41:36.112Z,0
2017-02-13T05:42:49.899Z,0
2017-02-13T05:44:03.586Z,0
2017-02-13T05:45:17.458Z,0
2017-02-13T05:46:31.656Z,0
2017-02-13T05:47:45.355Z,0
2017-02-13T05:48:59.280Z,0
2017-02-13T05:50:13.246Z,0
2017-02-13T05:51:27.307Z,0
2017-02-13T05:52:41.355Z,0
2017-02-13T05:53:55.607Z,0
2017-02-13T05:55:09.553Z,0
2017-02-13T05:56:35.330Z,0
2017-02-13T05:57:49.122Z,0
2017-02-13T05:59:03.199Z,0
2017-02-13T06:00:45.743Z,0
2017-02-13T06:01:59.712Z,0
2017-02-13T06:03:13.231Z,0
2017-02-13T06:04:27.399Z,0
2017-02-13T06:05:41.165Z,0
2017-02-13T06:06:55.568Z,0
2017-02-13T06:08:09.164Z,0
2017-02-13T06:09:23.093Z,0
2017-02-13T06:10:36.709Z,0
2017-02-13T06:11:51.362Z,0
2017-02-13T06:13:05.580Z,0
2017-02-13T06:14:19.477Z,0
2017-02-13T06:15:33.363Z,0
2017-02-13T06:16:47.180Z,0
2017-02-13T06:18:01.892Z,4
2017-02-13T06:19:15.845Z,4
2017-02-13T06:20:30.648Z,0
2017-02-13T06:21:44.327Z,4
2017-02-13T06:22:57.946Z,4
2017-02-13T06:24:12.626Z,4
2017-02-13T06:25:26.469Z,4
2017-02-13T06:26:41.069Z,4
2017-02-13T06:27:54.602Z,8
2017-02-13T06:29:08.267Z,8
2017-02-13T06:30:22.251Z,8
2017-02-13T06:31:36.081Z,12
2017-02-13T06:32:50.187Z,12
2017-02-13T06:34:04.524Z,12
2017-02-13T06:35:18.244Z,16
2017-02-13T06:36:32.223Z,16
2017-02-13T06:37:46.105Z,20
2017-02-13T06:39:02.373Z,24
2017-02-13T06:40:16.809Z,24
2017-02-13T06:41:30.984Z,28
2017-02-13T06:42:44.859Z,32
2017-02-13T06:43:59.259Z,36
2017-02-13T06:45:13.022Z,40
2017-02-13T06:46:26.647Z,44
2017-02-13T06:47:40.567Z,48
2017-02-13T06:48:54.918Z,52
2017-02-13T06:50:23.763Z,56
2017-02-13T06:51:37.680Z,64
2017-02-13T06:52:51.151Z,72
2017-02-13T06:54:05.600Z,80
2017-02-13T06:55:19.394Z,84
2017-02-13T06:56:33.590Z,84
2017-02-13T06:57:47.731Z,88
2017-02-13T06:59:01.427Z,100
2017-02-13T07:00:15.656Z,108
2017-02-13T07:01:29.277Z,116
2017-02-13T07:02:42.771Z,120
2017-02-13T07:03:56.625Z,136
2017-02-13T07:05:10.352Z,136
2017-02-13T07:06:24.843Z,148
2017-02-13T07:07:38.317Z,160
2017-02-13T07:08:52.009Z,172
2017-02-13T07:10:05.651Z,180
2017-02-13T07:11:19.833Z,184
2017-02-13T07:12:33.863Z,200
2017-02-13T07:13:47.874Z,212
2017-02-13T07:15:01.931Z,224
2017-02-13T07:16:15.620Z,240
2017-02-13T07:17:29.392Z,248
2017-02-13T07:18:43.662Z,264
2017-02-13T07:19:57.433Z,260
2017-02-13T07:21:11.363Z,280
2017-02-13T07:22:24.932Z,276
2017-02-13T07:23:39.182Z,280
2017-02-13T07:24:53.434Z,260
2017-02-13T07:26:07.183Z,268
2017-02-13T07:27:21.135Z,296
2017-02-13T07:28:34.920Z,308
2017-02-13T07:29:48.495Z,308
2017-02-13T07:31:03.227Z,312
2017-02-13T07:32:16.955Z,344
2017-02-13T07:33:30.936Z,420
2017-02-13T07:34:44.563Z,480
2017-02-13T07:35:58.414Z,580
2017-02-13T07:37:12.700Z,572
2017-02-13T07:38:26.844Z,552
2017-02-13T07:39:40.944Z,520
2017-02-13T07:40:54.699Z,476
2017-02-13T07:42:08.205Z,484
2017-02-13T07:43:22.479Z,488
2017-02-13T07:44:36.455Z,516
2017-02-13T07:45:50.280Z,532
2017-02-13T07:47:04.071Z,568
2017-02-13T07:48:17.769Z,620
2017-02-13T07:49:31.752Z,624
2017-02-13T07:50:45.920Z,596
2017-02-13T07:51:59.684Z,624
2017-02-13T07:53:13.428Z,648
2017-02-13T07:54:27.103Z,652
2017-02-13T07:57:11.834Z,680
2017-02-13T07:58:25.353Z,728
2017-02-13T07:59:39.603Z,752
2017-02-13T08:00:53.134Z,748
2017-02-13T08:02:07.636Z,712
2017-02-13T08:03:21.203Z,764
2017-02-13T08:04:35.151Z,772
2017-02-13T08:05:48.779Z,876
2017-02-13T08:07:02.792Z,856
2017-02-13T08:08:17.801Z,840
2017-02-13T08:09:32.057Z,932
2017-02-13T08:10:45.885Z,992
2017-02-13T08:11:59.815Z,1024
2017-02-13T08:13:13.675Z,1080
2017-02-13T08:14:28.186Z,1144
2017-02-13T08:15:41.952Z,1208
2017-02-13T08:16:55.649Z,1208
2017-02-13T08:18:09.279Z,1276
2017-02-13T08:19:23.093Z,1256
2017-02-13T08:20:37.222Z,1264
2017-02-13T08:21:51.067Z,1256
2017-02-13T08:23:04.714Z,1264
2017-02-13T08:24:18.840Z,1276
2017-02-13T08:25:32.521Z,1312
2017-02-13T08:26:46.747Z,1284
2017-02-13T08:28:00.662Z,1300
2017-02-13T08:29:14.421Z,1284
2017-02-13T08:30:28.610Z,1364
2017-02-13T08:31:42.392Z,1432
2017-02-13T08:32:56.190Z,1384
2017-02-13T08:34:10.358Z,1452
2017-02-13T08:35:23.908Z,1380
2017-02-13T08:36:37.915Z,1372
2017-02-13T08:37:51.480Z,1404
2017-02-13T08:39:05.596Z,1536
2017-02-13T08:40:19.314Z,1516
2017-02-13T08:41:33.328Z,1620
2017-02-13T08:42:46.924Z,1772
2017-02-13T08:44:01.069Z,1700
2017-02-13T08:45:14.670Z,1768
2017-02-13T08:46:28.809Z,1804
2017-02-13T08:47:42.370Z,1852
2017-02-13T08:48:56.652Z,2000
2017-02-13T08:50:10.179Z,2104
2017-02-13T08:51:24.066Z,1984
2017-02-13T08:52:37.630Z,1996
2017-02-13T08:53:51.636Z,2280
2017-02-13T08:55:05.208Z,2216
2017-02-13T08:56:18.826Z,2324
2017-02-13T08:57:32.296Z,2376
2017-02-13T08:58:46.533Z,2332
2017-02-13T09:00:00.492Z,2276
2017-02-13T09:01:14.975Z,2504
2017-02-13T09:02:28.564Z,2376
2017-02-13T09:03:42.787Z,2756
2017-02-13T09:04:56.477Z,2336
2017-02-13T09:06:10.726Z,2436
2017-02-13T09:07:24.351Z,2480
2017-02-13T09:08:38.130Z,2340
2017-02-13T09:09:52.327Z,2344
2017-02-13T09:11:06.168Z,2540
2017-02-13T09:12:22.352Z,2760
2017-02-13T09:13:36.266Z,2368
2017-02-13T09:14:50.677Z,2484
2017-02-13T09:16:34.489Z,2480
2017-02-13T09:17:48.483Z,2576
2017-02-13T09:19:02.195Z,2864
2017-02-13T09:20:16.029Z,2900
2017-02-13T09:21:29.747Z,3232
2017-02-13T09:22:44.194Z,3320
2017-02-13T09:23:57.888Z,3492
2017-02-13T09:25:12.312Z,3248
2017-02-13T09:26:25.943Z,3096
2017-02-13T09:27:39.851Z,2472
2017-02-13T09:28:53.862Z,3016
2017-02-13T09:30:08.792Z,2804
2017-02-13T09:31:23.019Z,2600
2017-02-13T09:32:37.109Z,2368
2017-02-13T09:33:50.675Z,2332
2017-02-13T09:35:05.206Z,2000
2017-02-13T09:36:19.203Z,2036
2017-02-13T09:37:32.895Z,2208
2017-02-13T09:38:46.521Z,2068
2017-02-13T09:40:01.356Z,2144
2017-02-13T09:41:15.157Z,2388
2017-02-13T09:42:29.251Z,2344
2017-02-13T09:43:42.865Z,2612
2017-02-13T09:44:56.713Z,3040
2017-02-13T09:46:10.333Z,3260
2017-02-13T09:47:24.689Z,3000
2017-02-13T09:48:38.627Z,3212
2017-02-13T09:49:52.884Z,3596
2017-02-13T09:51:06.358Z,3800
2017-02-13T09:52:20.139Z,3484
2017-02-13T09:53:34.244Z,2984
2017-02-13T09:54:48.121Z,3716
2017-02-13T09:56:02.025Z,2748
2017-02-13T09:57:16.047Z,3404
2017-02-13T09:58:29.534Z,2804
2017-02-13T09:59:43.831Z,2848
2017-02-13T10:00:57.592Z,2964
2017-02-13T10:02:11.255Z,2100
2017-02-13T10:03:25.430Z,1952
2017-02-13T10:04:39.208Z,2308
2017-02-13T10:05:53.354Z,2148
2017-02-13T10:07:07.644Z,1928
2017-02-13T10:08:21.573Z,2104
2017-02-13T10:09:35.264Z,2024
2017-02-13T10:10:48.847Z,1952
2017-02-13T10:12:03.163Z,2096
2017-02-13T10:13:16.622Z,1876
2017-02-13T10:14:30.362Z,2056
2017-02-13T10:15:44.834Z,1924
2017-02-13T10:16:58.720Z,2064
2017-02-13T10:18:28.080Z,2088
2017-02-13T10:19:41.916Z,2088
2017-02-13T10:20:55.652Z,2068
2017-02-13T10:22:09.674Z,2068
2017-02-13T10:23:23.291Z,2064
2017-02-13T10:24:37.796Z,2064
2017-02-13T10:25:51.266Z,2080
2017-02-13T10:27:05.813Z,2056
2017-02-13T10:28:19.266Z,2048
2017-02-13T10:29:35.266Z,2072
2017-02-13T10:30:50.039Z,2032
2017-02-13T10:32:03.776Z,2048
2017-02-13T10:33:17.330Z,2016
2017-02-13T10:34:31.270Z,2024
2017-02-13T10:35:45.300Z,2008
2017-02-13T10:36:59.396Z,1988
2017-02-13T10:38:13.392Z,2012
2017-02-13T10:39:27.438Z,2008
2017-02-13T10:40:41.019Z,2012
2017-02-13T10:41:54.782Z,2016
2017-02-13T10:43:08.780Z,2012
2017-02-13T10:44:22.628Z,2004
2017-02-13T10:45:36.512Z,2008
2017-02-13T10:46:50.498Z,2012
2017-02-13T10:48:04.433Z,2016
2017-02-13T10:49:18.799Z,2012
2017-02-13T10:50:32.512Z,2012
2017-02-13T10:51:46.958Z,1988
2017-02-13T10:53:01.409Z,2012
2017-02-13T10:54:15.336Z,2012
2017-02-13T10:55:29.372Z,1996
2017-02-13T10:56:43.294Z,2012
2017-02-13T10:57:57.014Z,2000
2017-02-13T10:59:11.041Z,1972
2017-02-13T11:00:24.898Z,1996
2017-02-13T11:01:38.828Z,1984
2017-02-13T11:02:52.432Z,1996
2017-02-13T11:04:06.410Z,1992
2017-02-13T11:05:20.462Z,1992
2017-02-13T11:06:34.452Z,1992
2017-02-13T11:07:48.317Z,1988
2017-02-13T11:09:02.125Z,1964
2017-02-13T11:10:15.993Z,1972
2017-02-13T11:11:29.824Z,1956
2017-02-13T11:12:43.325Z,1956
2017-02-13T11:13:57.617Z,1944
2017-02-13T11:15:11.445Z,1940
2017-02-13T11:16:25.630Z,1932
2017-02-13T11:17:40.779Z,1932
2017-02-13T11:18:55.002Z,1924
2017-02-13T11:20:09.190Z,1916
2017-02-13T11:21:47.571Z,1908
2017-02-13T11:23:01.491Z,1908
2017-02-13T11:24:15.423Z,1904
2017-02-13T11:25:29.191Z,1900
2017-02-13T11:26:43.583Z,1892
2017-02-13T11:27:57.441Z,1884
2017-02-13T11:29:11.009Z,1876
2017-02-13T11:30:24.906Z,1872
2017-02-13T11:31:38.693Z,1860
2017-02-13T11:32:52.718Z,1856
2017-02-13T11:34:06.347Z,1852
2017-02-13T11:35:35.326Z,1848
2017-02-13T11:36:49.644Z,1832
2017-02-13T11:38:04.133Z,1832
2017-02-13T11:39:17.761Z,1828
2017-02-13T11:40:31.941Z,1832
2017-02-13T11:41:45.873Z,1836
2017-02-13T11:43:00.298Z,1828
2017-02-13T11:44:14.155Z,1828
2017-02-13T11:45:28.009Z,1820
2017-02-13T11:46:44.162Z,1816
2017-02-13T11:47:57.786Z,1816
2017-02-13T11:49:11.636Z,1816
2017-02-13T11:50:25.897Z,1808
2017-02-13T11:51:40.375Z,1808
2017-02-13T11:52:54.228Z,1800
2017-02-13T11:54:08.289Z,1796
2017-02-13T11:55:21.887Z,1796
2017-02-13T11:56:45.747Z,1788
2017-02-13T11:57:59.894Z,1784
2017-02-13T11:59:13.987Z,1780
2017-02-13T12:00:27.810Z,1776
2017-02-13T12:01:41.920Z,1768
2017-02-13T12:02:56.417Z,1772
2017-02-13T12:04:10.160Z,1768
2017-02-13T12:05:24.399Z,1764
2017-02-13T12:06:38.511Z,1764
2017-02-13T12:07:52.673Z,1768
2017-02-13T12:09:06.213Z,1760
2017-02-13T12:10:21.065Z,1760
2017-02-13T12:11:34.604Z,1760
2017-02-13T12:12:49.142Z,1760
2017-02-13T12:14:03.026Z,1768
2017-02-13T12:15:17.447Z,1772
2017-02-13T12:16:31.688Z,1772
2017-02-13T12:17:46.080Z,1768
2017-02-13T12:19:00.461Z,1768
2017-02-13T12:20:14.150Z,1768
2017-02-13T12:21:43.220Z,1776
2017-02-13T12:22:57.087Z,1776
2017-02-13T12:24:11.401Z,1772
2017-02-13T12:25:25.291Z,1772
2017-02-13T12:26:39.752Z,1776
2017-02-13T12:27:53.712Z,1780
2017-02-13T12:29:07.447Z,1780
2017-02-13T12:30:21.714Z,1776
2017-02-13T12:31:56.737Z,1776
2017-02-13T12:33:10.740Z,1768
2017-02-13T12:34:24.988Z,1768
2017-02-13T12:35:38.966Z,1768
2017-02-13T12:36:53.015Z,1772
2017-02-13T12:38:06.734Z,1772
2017-02-13T12:39:20.738Z,1780
2017-02-13T12:40:35.329Z,1768
2017-02-13T12:41:49.574Z,1776
2017-02-13T12:43:03.723Z,1784
2017-02-13T12:45:41.104Z,1796
2017-02-13T12:46:56.158Z,1792
2017-02-13T12:48:25.580Z,1792
2017-02-13T12:49:39.542Z,1792
2017-02-13T12:50:54.021Z,1796
2017-02-13T12:52:07.613Z,1796
2017-02-13T12:53:22.013Z,1796
2017-02-13T12:54:36.739Z,1788
2017-02-13T12:55:51.177Z,1804
2017-02-13T12:57:04.775Z,1796
2017-02-13T12:58:18.967Z,1804
2017-02-13T12:59:33.117Z,1804
2017-02-13T13:00:48.106Z,1796
2017-02-13T13:02:02.238Z,1800
2017-02-13T13:03:16.181Z,1804
2017-02-13T13:04:30.045Z,1800
2017-02-13T13:05:46.131Z,1808
2017-02-13T13:07:00.141Z,1796
2017-02-13T13:08:13.966Z,1796
2017-02-13T13:09:28.968Z,1800
2017-02-13T13:10:42.878Z,1796
2017-02-13T13:11:56.749Z,1808
2017-02-13T13:13:10.936Z,1800
2017-02-13T13:14:24.776Z,1800
2017-02-13T13:15:40.030Z,1812
2017-02-13T13:16:54.670Z,1804
2017-02-13T13:18:08.272Z,1804
2017-02-13T13:19:22.639Z,1808
2017-02-13T13:20:36.675Z,1808
2017-02-13T13:21:50.816Z,1804
2017-02-13T13:23:04.933Z,1804
2017-02-13T13:24:19.235Z,1812
2017-02-13T13:25:33.843Z,1816
2017-02-13T13:26:48.259Z,1816
2017-02-13T13:28:02.534Z,1820
2017-02-13T13:29:16.700Z,1820
2017-02-13T13:30:30.279Z,1816
2017-02-13T13:31:44.752Z,1816
2017-02-13T13:32:58.491Z,1816
2017-02-13T13:34:12.813Z,1808
2017-02-13T13:35:26.579Z,1808
2017-02-13T13:36:40.541Z,1804
2017-02-13T13:37:55.317Z,1800
2017-02-13T13:39:09.755Z,1800
2017-02-13T13:40:23.351Z,1800
2017-02-13T13:41:37.413Z,1792
2017-02-13T13:42:51.568Z,1784
2017-02-13T13:44:05.848Z,1784
2017-02-13T13:45:19.464Z,1788
2017-02-13T13:46:33.465Z,1784
2017-02-13T13:47:47.132Z,1784
2017-02-13T13:49:01.150Z,1776
2017-02-13T13:50:14.942Z,1776
2017-02-13T13:51:28.690Z,1776
2017-02-13T13:52:42.625Z,1764
2017-02-13T13:53:56.360Z,1760
2017-02-13T13:55:10.301Z,1764
2017-02-13T13:56:24.354Z,1764
2017-02-13T13:57:37.972Z,1756
2017-02-13T13:58:51.732Z,1748
2017-02-13T14:00:06.005Z,1740
2017-02-13T14:01:19.842Z,1748
2017-02-13T14:02:33.792Z,1744
2017-02-13T14:03:47.802Z,1736
2017-02-13T14:05:01.465Z,1728
2017-02-13T14:06:15.706Z,1728
2017-02-13T14:07:29.517Z,1716
2017-02-13T14:08:44.372Z,1716
2017-02-13T14:09:57.955Z,1716
2017-02-13T14:11:11.905Z,1708
2017-02-13T14:12:25.722Z,1704
2017-02-13T14:13:39.507Z,1708
2017-02-13T14:14:54.321Z,1704
2017-02-13T14:16:08.435Z,1700
2017-02-13T14:17:22.004Z,1696
2017-02-13T14:18:36.589Z,1692
2017-02-13T14:19:50.150Z,1688
2017-02-13T14:21:04.355Z,1680
2017-02-13T14:22:20.360Z,1676
2017-02-13T14:23:34.107Z,1664
2017-02-13T14:24:48.011Z,1664
2017-02-13T14:26:01.844Z,1660
2017-02-13T14:27:16.107Z,1660
2017-02-13T14:28:29.812Z,1652
2017-02-13T14:29:43.977Z,1644
2017-02-13T14:30:57.597Z,1636
2017-02-13T14:32:12.010Z,1636
2017-02-13T14:33:26.295Z,1628
2017-02-13T14:34:40.394Z,1620
2017-02-13T14:35:53.999Z,1616
2017-02-13T14:37:07.788Z,1604
2017-02-13T14:38:21.794Z,1604
2017-02-13T14:39:35.964Z,1600
2017-02-13T14:40:50.081Z,1592
2017-02-13T14:42:04.328Z,1584
2017-02-13T14:43:18.714Z,1576
2017-02-13T14:44:41.592Z,1572
2017-02-13T14:45:55.483Z,1564
2017-02-13T14:47:09.742Z,1556
2017-02-13T14:48:24.353Z,1548
2017-02-13T14:49:37.998Z,1544
2017-02-13T14:50:51.968Z,1532
2017-02-13T14:52:06.125Z,1528
2017-02-13T14:53:20.494Z,1524
2017-02-13T14:54:34.146Z,1512
2017-02-13T14:55:48.659Z,1508
2017-02-13T14:57:02.647Z,1496
2017-02-13T14:58:17.429Z,1484
2017-02-13T14:59:31.022Z,1472
2017-02-13T15:00:44.765Z,1464
2017-02-13T15:01:58.552Z,1456
2017-02-13T15:03:12.364Z,1448
2017-02-13T15:04:26.205Z,1440
2017-02-13T15:05:55.298Z,1424
2017-02-13T15:07:09.655Z,1412
2017-02-13T15:08:23.372Z,1400
2017-02-13T15:09:37.237Z,1388
2017-02-13T15:10:51.251Z,1376
2017-02-13T15:12:05.517Z,1368
2017-02-13T15:13:19.293Z,1356
2017-02-13T15:14:52.281Z,1344
2017-02-13T15:16:06.126Z,1332
2017-02-13T15:17:20.224Z,1320
2017-02-13T15:18:34.045Z,1312
2017-02-13T15:19:48.007Z,1300
2017-02-13T15:21:02.334Z,1288
2017-02-13T15:22:16.042Z,1280
2017-02-13T15:23:30.462Z,1264
2017-02-13T15:24:44.338Z,1252
2017-02-13T15:25:58.646Z,1244
2017-02-13T15:27:12.652Z,1232
2017-02-13T15:28:26.963Z,1212
2017-02-13T15:29:40.740Z,1204
2017-02-13T15:30:54.661Z,1188
2017-02-13T15:32:08.564Z,1168
2017-02-13T15:33:22.941Z,1156
2017-02-13T15:34:36.850Z,1144
2017-02-13T15:35:51.008Z,1128
2017-02-13T15:37:04.905Z,1120
2017-02-13T15:38:18.942Z,1104
2017-02-13T15:39:35.114Z,1084
2017-02-13T15:40:48.710Z,1076
2017-02-13T15:42:02.640Z,1056
2017-02-13T15:43:16.965Z,1040
2017-02-13T15:44:31.521Z,1028
2017-02-13T15:45:46.657Z,1008
2017-02-13T15:47:00.640Z,992
2017-02-13T15:48:15.316Z,976
2017-02-13T15:49:29.854Z,956
2017-02-13T15:50:43.421Z,940
2017-02-13T15:51:57.685Z,924
2017-02-13T15:53:12.138Z,904
2017-02-13T15:54:26.662Z,884
2017-02-13T15:55:40.990Z,868
2017-02-13T15:56:55.215Z,848
2017-02-13T15:58:09.658Z,824
2017-02-13T15:59:23.633Z,808
2017-02-13T16:00:37.305Z,788
2017-02-13T16:01:51.308Z,764
2017-02-13T16:03:05.026Z,744
2017-02-13T16:04:18.768Z,720
2017-02-13T16:05:32.786Z,700
2017-02-13T16:06:47.263Z,676
2017-02-13T16:08:01.315Z,656
2017-02-13T16:09:16.332Z,632
2017-02-13T16:10:30.759Z,612
2017-02-13T16:11:44.553Z,588
2017-02-13T16:12:58.445Z,564
2017-02-13T16:14:12.381Z,540
2017-02-13T16:15:26.283Z,516
2017-02-13T16:16:40.386Z,496
2017-02-13T16:17:54.454Z,468
2017-02-13T16:19:08.677Z,444
2017-02-13T16:20:37.355Z,420
2017-02-13T16:21:51.122Z,396
2017-02-13T16:23:05.174Z,372
2017-02-13T16:24:19.355Z,348
2017-02-13T16:25:33.078Z,324
2017-02-13T16:26:47.094Z,304
2017-02-13T16:28:00.669Z,284
2017-02-13T16:29:14.850Z,260
2017-02-13T16:30:29.340Z,240
2017-02-13T16:31:43.357Z,220
2017-02-13T16:32:57.209Z,200
2017-02-13T16:34:10.889Z,180
2017-02-13T16:35:39.469Z,160
2017-02-13T16:36:53.524Z,144
2017-02-13T16:38:07.427Z,124
2017-02-13T16:39:21.417Z,112
2017-02-13T16:40:35.214Z,100
2017-02-13T16:41:49.447Z,84
